• Back
  •  
  • Position of Reservoir Gates
S.No.
No. of opened gates
Position of opening (In m)
Reporting Date
Reporting Time
Discharge in Cumecs
Discharge in Cusecs
Actual date and time of Gate opening
1
2
3
4
5
6
7
8
1 2 0.23 06/08/2020 3:25:00 PM 60.4 2133.03
2 2 0.23 07/08/2020 8:00:00 AM 60.4 2133.03
3 2 0.22 10/08/2020 3:00:00 PM 58.4 2062.4
4 1 0.3 11/08/2020 8:00:00 AM 79 2789.88
5 2 0.1 12/08/2020 8:00:00 AM 32.4 1144.21
6 2 0.15 13/08/2020 8:00:00 AM 32.4 1144.21
7 2 0.3 13/08/2020 5:20:00 PM 82.5 2913.49
8 2 0.6 13/08/2020 8:45:00 PM 158.2 5586.83
9 3 0.5 14/08/2020 8:00:00 AM 196.4 6935.87 average gate opening is 0.50M
10 2 0.4 14/08/2020 2:00:00 PM 106.1 3746.92
11 1 0.15 04/10/2021 12:00:00 PM 21 741.62 4.10.21 12pm
12 1 0.3 05/10/2021 12:00:00 PM 42 1483.23 5.10.21 12pm
13 2 0.25 05/10/2021 4:00:00 PM 63 2224.84
14 1 0.3 06/10/2021 8:00:00 AM 42 1483.23 6.10.21 8am
15 1 0.3 06/10/2021 8:00:00 PM 42 1483.23
16 1 0.1 07/10/2021 8:00:00 PM 14.28 504.3
17 1 0.3 08/10/2021 8:00:00 AM 42 1483.23 8.10.21 8am
18 2 0.3 08/10/2021 8:00:00 PM 84 2966.46
19 1 0.3 09/10/2021 8:00:00 AM 42 1483.23
20 2 0.3 21/08/2020 12:00:05 PM 80 2825.2
21 3 0.5 22/08/2020 8:00:00 AM 204 7204.26 03 Nos Gates opened @0.5M Each wef 21-08-2020 8.30PM
22 3 0.25 22/08/2020 2:50:00 PM 100.4 3545.63
23 3 0.25 23/08/2020 8:00:00 AM 100.4 3545.63
24 3 0.25 24/08/2020 8:00:00 AM 100.4 3545.63 Gate opened on Dated 23/08/2020 at 8.00AM
25 3 0.25 24/08/2020 8:00:00 AM 100.4 3545.63
26 2 0.15 25/08/2020 8:00:00 AM 39.1 1380.82
27 1 0.1 10/10/2021 8:00:00 PM 14 494.41
28 1 0.1 10/10/2021 8:00:00 AM 14 494.41
29 1 0.1 09/10/2021 8:00:00 PM 14 494.41
30 1 0.1 11/10/2021 8:00:00 AM 14 494.41 11.10.21 8am
31 1 0.1 12/10/2021 8:00:00 AM 14 494.41 12.10.21 8am
32 0 0 12/10/2021 12:00:00 PM 0 0 12.10.21 12pm
33 1 0.1 12/10/2021 8:00:00 PM 14 494.41
34 2 0.15 26/08/2020 12:00:00 AM 39.1 1380.82
35 2 0.15 27/08/2020 12:00:00 AM 39.1 1380.82
36 2 0.15 28/08/2020 12:00:00 AM 39.1 1380.82
37 5 0.6 28/08/2020 3:00:00 PM 410 14479.15
38 5 0.8 29/08/2020 12:00:00 AM 525 18540.38 Actual Date of Gate Opening 28.08.2020 & Time 10.15 PM
39 5 0.4 29/08/2020 4:00:00 PM 231 8157.76
40 5 0.4 30/08/2020 12:00:00 AM 231 8157.76 Gates opened on dated 29.08.2020 at 4.00PM
41 2 0.6 30/08/2020 12:00:00 PM 124.7 4403.78
42 2 0.6 30/08/2020 8:00:00 AM 124.7 4403.78
43 2 0.3 30/08/2020 4:00:00 PM 78.5 2772.23
44 2 0.3 31/08/2020 8:00:00 AM 78.5 2772.23 Gates Opened on Dated 30.08.2020 at 4.00 PM
45 2 0.15 31/08/2020 3:05:00 PM 44.7 1578.58
46 2 0.15 01/09/2020 12:00:00 AM 44.7 1578.58 31/08/2020 3.05PM
47 2 0.15 02/09/2020 12:00:00 AM 44.7 1578.58 01/09/2020 12.00PM
48 1 0.15 04/09/2020 12:00:00 AM 20.8 734.55
49 0 0 05/09/2020 1:00:00 PM 0 0
50 1 0.15 03/09/2020 5:45:00 PM 20.8 734.55
51 1 0.15 05/09/2020 1:00:00 AM 20.8 734.55 04/09/2020 8.00 PM
52 2 0.2 14/09/2020 1:00:00 PM 53.1 1875.23
53 2 0.4 15/09/2020 12:00:00 PM 104 3672.76
54 0 0 15/09/2020 4:50:00 PM 0 0 ALL GATES ARE CLOSED
55 2 0.2 19/09/2020 12:00:00 PM 56 1977.64
56 2 0.2 20/09/2020 12:00:00 AM 56 1977.64
57 1 0.2 20/09/2020 8:00:00 AM 25.2 889.94
58 1 0.17 21/09/2020 8:00:00 AM 24 847.56
59 1 0.02 21/09/2020 4:00:00 PM 24 847.56
60 2 0.3 22/09/2020 8:00:00 AM 84 2966.46
61 2 0.3 22/09/2020 12:00:00 PM 84 2966.46
62 2 0.6 22/09/2020 8:00:00 PM 170.8 6031.8
63 2 0.6 23/09/2020 4:00:00 AM 170 6003.55
64 2 0.4 24/09/2020 12:00:00 AM 115 4061.22
65 1 0.18 24/09/2020 8:00:00 PM 26 918.19
66 1 0.18 25/09/2020 12:00:00 AM 26 918.19
67 1 0.32 25/09/2020 4:00:00 PM 46 1624.49
68 1 0.32 26/09/2020 12:00:00 AM 46 1624.49
69 1 0.32 27/09/2020 12:00:00 AM 46 1624.49
70 1 0.2 27/09/2020 8:00:00 AM 30.3 1070.04
71 1 0.2 30/09/2020 8:00:00 AM 30.3 1070.04
72 1 0.2 28/09/2020 12:00:00 AM 30.3 1070.04
73 1 0.2 29/09/2020 12:00:00 AM 30.3 1070.04
74 1 0.2 29/09/2020 12:00:00 PM 30.3 1070.04
75 1 0.2 01/10/2020 8:00:00 AM 59 2083.59
76 2 0.3 02/10/2020 12:00:00 PM 84.6 2987.65
77 2 0.3 03/10/2020 8:00:00 AM 84.6 2987.65
78 1 0.23 22/07/2021 6:45:00 PM 25.6 904.06 22/07/2021 18.45 PM
79 1 0.23 23/07/2021 6:45:00 PM 25.6 904.06 22/07/2021 18.45
80 1 0.23 23/07/2021 8:00:00 AM 25.6 904.06 22/07/2021 18.45 PM
81 1 0.23 22/07/2021 6:45:00 PM 25.6 904.06 22-07-2021 18:45
82 1 0.23 24/07/2021 8:00:00 AM 25.6 904.06 22/07/2021 4.00PM
83 1 0.23 25/07/2021 8:00:00 AM 25.6 904.06 22/07/2021
84 1 0.23 26/07/2021 8:00:00 AM 25.6 904.06 24/07/2021
85 1 0.23 27/07/2021 8:00:00 AM 25.6 904.06 27/07/2021
86 1 0.23 28/07/2021 8:00:00 AM 25.6 904.06 28/07/2021
87 1 0.23 29/07/2021 8:00:00 AM 25.6 904.06 29/08/2021
88 1 0.23 30/07/2021 8:00:00 AM 25.6 904.06 29/08/2021
89 1 0.23 31/07/2021 8:00:00 AM 25.6 904.06 31/08/2021
90 1 0.23 31/07/2021 8:00:00 AM 25.6 904.06 31/07/2021
91 1 0.23 01/08/2021 8:00:00 AM 25.6 904.06 01/08/2021
92 1 0.23 02/08/2021 8:00:00 AM 25.6 904.06 02/08/2021
93 1 0.23 03/08/2021 8:00:00 AM 25.6 904.06 03/08/2021
94 1 0.23 04/08/2021 8:00:00 AM 25.6 904.06 04/08/2021
95 1 0.23 05/08/2021 8:00:00 AM 25.6 904.06 05/08/2021
96 1 0.23 06/08/2021 8:00:00 AM 25.6 904.06 06/08/2021
97 1 0.23 07/08/2021 8:00:00 AM 25.6 904.06 07/08/2021
98 3 0.3 09/09/2021 4:00:00 PM 124.2 4386.12
99 3 0.3 10/09/2021 8:00:00 AM 124.2 4386.12
100 2 0.2 10/09/2021 12:00:00 PM 58.8 2076.52
101 2 0.2 11/09/2021 8:00:00 AM 58.8 2076.52
102 2 0.3 12/09/2021 8:00:00 AM 86 3037.09
103 2 0.3 13/09/2021 8:00:00 AM 86 3037.09 13.9.21 8am
104 0 0 13/09/2021 4:00:00 PM 0 0
105 3 0.6 14/09/2021 8:00:00 PM 262.2 9259.59
106 2 0.2 17/09/2021 8:00:00 AM 57 2012.95 17/09/2021
107 1 0.15 20/09/2021 8:00:00 AM 21 741.62 20/09/2021
108 2 0.3 21/09/2021 8:00:00 AM 85.4 3015.9 21/09/20210.30
109 1 0.2 21/09/2021 12:00:00 PM 28 988.82 21.9.21 12 pm
110 1 0.2 22/09/2021 8:00:00 AM 28 988.82 22/09/2021
111 2 0.3 23/09/2021 6:00:00 PM 84 2966.46
112 2 0.2 24/09/2021 8:00:00 PM 57 2012.95
113 2 0.3 26/09/2021 8:00:00 AM 84 2966.46
114 1 0.15 27/09/2021 8:00:00 AM 21 741.62 27.9.21 8am
115 1 0.3 27/09/2021 4:00:00 PM 42 1483.23
116 2 0.3 29/09/2021 8:00:00 AM 84 2966.46 29.9.21 8am
117 2 0.3 30/09/2021 8:00:00 PM 84 2966.46
118 1 0.15 01/10/2021 8:00:00 AM 21 741.62
119 2 0.3 01/10/2021 8:00:00 PM 84 2966.46
120 1 0.3 02/10/2021 8:00:00 AM 42 1483.23
121 1 0.15 03/10/2021 8:00:00 AM 21 741.62
122 6 0.5 25/08/2019 8:00:00 AM 373 13172.49
123 6 0.3 25/08/2019 4:00:00 PM 200 7063
124 6 1.3 26/08/2019 12:08:00 AM 200 7063
125 3 0.6 26/08/2019 11:00:00 AM 212 7486.78
126 2 0.3 27/08/2019 12:05:00 AM 73 2577.99
127 0 0 27/08/2019 1:00:00 AM 0 0
128 3 0.3 29/08/2019 11:30:00 AM 118 4167.17
129 3 1 29/08/2019 5:30:00 PM 384 13560.96
130 3 1 30/08/2019 12:05:00 AM 384 13560.96 gate opening since 29/8/2019at8:0pm
131 3 0.3 30/08/2019 12:00:00 PM 115 4061.22
132 3 0.3 31/08/2019 12:01:00 AM 115 4061.22
133 2 0.3 31/08/2019 11:00:00 AM 78 2754.57
134 2 0.1 31/08/2019 4:30:00 PM 78 2754.57
135 2 0.1 31/08/2019 5:00:00 PM 39 1377.28
136 2 0.1 01/09/2019 12:00:00 PM 39 1377.28
137 2 0.1 04/09/2019 8:00:00 AM 24 847.56
138 2 0.1 02/09/2019 7:00:00 AM 39 1377.28
139 2 0.1 02/09/2019 8:00:00 AM 24 847.56
140 2 0.1 03/09/2019 12:01:00 AM 24 847.56
141 2 0.1 05/09/2019 12:00:00 PM 24 847.56
142 2 1 14/09/2019 4:15:00 PM 251 8864.06
143 2 0.3 15/09/2019 9:00:00 AM 76 2683.94
144 2 0.5 15/09/2019 1:30:00 PM 123 4343.74
145 2 0.5 16/09/2019 12:01:00 AM 123 4343.74
146 0 0 16/09/2019 6:00:00 AM 0 0 all gates are closed at 6:0am
147 0 0 21/09/2019 9:00:00 AM 0 0 All Gates are closed.
148 0 0 22/09/2019 10:00:00 AM 0 0 All Gates are closed.
149 3 0.1 28/09/2019 11:20:00 AM 37.99 1341.62
150 4 1 28/09/2019 4:00:00 PM 536 18928.84
151 3 0.5 28/09/2019 8:00:00 PM 208 7345.52
152 3 0.5 29/09/2019 1:00:00 AM 208 7345.52
153 3 0.2 29/09/2019 8:30:00 AM 69 2436.73
154 3 0.7 30/09/2019 12:01:00 AM 246 8687.49
155 0 0 30/09/2019 7:30:00 AM 0 0 all gates are closed
156 1 0.5 06/10/2019 9:15:00 AM 35.32 1247.33
157 2 0.2 06/07/2020 1:15:00 PM 52 1836.38
Powered by © Water Resources Department (MP). All Rights Reserved.